Time;durP1;ratioP1;P1;durP2;ratioP2;P2;SDS_P1;SDS_P2;PMS_P1;PMS_P2;Temp;Humidity;BMP_temperature;BMP_pressure;BME280_temperature;BME280_humidity;BME280_pressure;Samples;Min_cycle;Max_cycle;Signal;HPM_P1;HPM_P2
2023/03/23 00:01:31;;;;;;;5.53;3.08;;;10.00;99.90;;;;;;5069282;28;20056;-82
2023/03/23 00:04:17;;;;;;;8.13;3.53;;;10.00;99.90;;;;;;5068843;28;20060;-84
2023/03/23 00:07:03;;;;;;;7.38;4.28;;;10.00;99.90;;;;;;5069629;28;20064;-86
2023/03/23 00:09:53;;;;;;;7.93;4.20;;;10.00;99.90;;;;;;5069063;28;20040;-83
2023/03/23 00:12:42;;;;;;;8.40;4.07;;;10.00;99.90;;;;;;5068501;28;20045;-85
2023/03/23 00:15:33;;;;;;;9.18;5.20;;;10.00;99.90;;;;;;5069379;28;20678;-80
2023/03/23 00:18:23;;;;;;;9.23;5.40;;;10.10;99.90;;;;;;5068873;28;20044;-82
2023/03/23 00:21:09;;;;;;;9.35;5.68;;;10.10;99.90;;;;;;5070649;28;20048;-83
2023/03/23 00:23:55;;;;;;;9.35;5.03;;;10.10;99.90;;;;;;5073560;28;20735;-86
2023/03/23 00:26:43;;;;;;;9.88;5.32;;;10.10;99.90;;;;;;5073459;28;20436;-83
2023/03/23 00:29:29;;;;;;;9.32;5.18;;;10.10;99.90;;;;;;5073028;28;20139;-86
2023/03/23 00:32:16;;;;;;;12.38;4.40;;;10.10;99.90;;;;;;5074766;28;20095;-81
2023/03/23 00:35:03;;;;;;;11.13;4.45;;;10.10;99.90;;;;;;5073634;28;20416;-83
2023/03/23 00:37:49;;;;;;;10.15;4.50;;;10.00;99.90;;;;;;5073033;28;20048;-83
2023/03/23 00:40:35;;;;;;;9.40;5.07;;;10.10;99.90;;;;;;5080656;28;20044;-85
2023/03/23 00:43:24;;;;;;;10.07;5.40;;;10.10;99.90;;;;;;5093531;28;20048;-85
2023/03/23 00:46:10;;;;;;;10.93;6.05;;;10.10;99.90;;;;;;5093422;28;20390;-86
2023/03/23 00:48:56;;;;;;;11.57;6.45;;;10.10;99.90;;;;;;5093549;28;20412;-83
2023/03/23 00:51:43;;;;;;;13.95;8.15;;;10.10;99.90;;;;;;5091981;28;20044;-84
2023/03/23 00:54:29;;;;;;;25.58;13.25;;;10.10;99.90;;;;;;5092238;28;20506;-85
2023/03/23 00:57:17;;;;;;;21.98;14.35;;;10.20;99.90;;;;;;5092090;28;20091;-81
2023/03/23 01:00:09;;;;;;;31.10;17.95;;;10.30;99.90;;;;;;5091140;28;20083;-80
2023/03/23 01:02:55;;;;;;;26.60;17.88;;;10.30;99.90;;;;;;5087658;28;20049;-81
2023/03/23 01:05:41;;;;;;;31.33;18.15;;;10.30;99.90;;;;;;5070790;28;20056;-82
2023/03/23 01:08:28;;;;;;;27.88;18.73;;;10.30;99.90;;;;;;5072750;28;20054;-81
2023/03/23 01:11:16;;;;;;;31.23;18.42;;;10.40;99.90;;;;;;5069944;28;20055;-83
2023/03/23 01:14:04;;;;;;;23.90;16.75;;;10.40;99.90;;;;;;5074835;28;20048;-82
2023/03/23 01:16:50;;;;;;;25.20;16.30;;;10.40;99.90;;;;;;5072416;28;20049;-83
2023/03/23 01:19:37;;;;;;;21.27;12.85;;;10.40;99.90;;;;;;5057784;28;20049;-82
2023/03/23 01:22:24;;;;;;;22.00;13.63;;;10.40;99.90;;;;;;5071384;28;20135;-81
2023/03/23 01:25:12;;;;;;;19.52;13.68;;;10.40;99.90;;;;;;5069079;28;20045;-82
2023/03/23 01:27:59;;;;;;;18.98;12.35;;;10.40;99.90;;;;;;5083868;28;20135;-82
2023/03/23 01:30:45;;;;;;;20.15;13.82;;;10.40;99.90;;;;;;5071484;28;20502;-87
2023/03/23 01:33:32;;;;;;;16.95;11.45;;;10.40;99.90;;;;;;5068242;28;20060;-84
2023/03/23 01:36:21;;;;;;;19.13;12.00;;;10.40;99.90;;;;;;5071332;28;20053;-85
2023/03/23 01:39:07;;;;;;;17.20;10.55;;;10.50;99.90;;;;;;5072914;28;20049;-85
2023/03/23 01:41:54;;;;;;;16.85;9.80;;;10.50;99.90;;;;;;5068528;28;20088;-83
2023/03/23 01:44:40;;;;;;;22.13;11.38;;;10.50;99.90;;;;;;5071537;28;20048;-82
2023/03/23 01:47:26;;;;;;;16.08;9.52;;;10.50;99.90;;;;;;5075351;28;20064;-82
2023/03/23 01:50:12;;;;;;;17.08;9.35;;;10.60;99.90;;;;;;5070324;28;20048;-85
2023/03/23 01:53:01;;;;;;;15.00;9.13;;;10.60;99.90;;;;;;5070351;28;20056;-85
2023/03/23 01:55:51;;;;;;;15.27;9.18;;;10.60;99.90;;;;;;5069033;28;20182;-85
2023/03/23 01:58:38;;;;;;;17.25;9.57;;;10.60;99.90;;;;;;5071903;28;20091;-84
2023/03/23 02:01:25;;;;;;;14.68;8.63;;;10.60;99.90;;;;;;5067574;28;20067;-81
2023/03/23 02:04:14;;;;;;;11.48;7.72;;;10.60;99.90;;;;;;5071094;28;20079;-84
2023/03/23 02:07:01;;;;;;;13.50;8.23;;;10.70;99.90;;;;;;5070029;28;20040;-82
2023/03/23 02:09:49;;;;;;;16.75;8.43;;;10.70;99.90;;;;;;5082554;28;20052;-83
2023/03/23 02:12:35;;;;;;;15.45;8.13;;;10.70;99.90;;;;;;5070399;28;20045;-82
2023/03/23 02:15:23;;;;;;;17.55;9.10;;;10.70;99.90;;;;;;5073101;28;20496;-83
2023/03/23 02:18:31;;;;;;;13.70;7.65;;;10.70;99.90;;;;;;5070613;28;20058;-82
2023/03/23 02:21:34;;;;;;;17.33;8.98;;;10.80;99.90;;;;;;5068213;28;20049;-84
2023/03/23 02:24:51;;;;;;;15.63;9.25;;;10.80;99.90;;;;;;5068694;28;20049;-83
2023/03/23 02:27:48;;;;;;;17.98;8.88;;;10.80;99.90;;;;;;5070260;28;20052;-84
2023/03/23 02:30:50;;;;;;;18.40;8.90;;;10.80;99.90;;;;;;5070077;28;20056;-83
2023/03/23 02:33:40;;;;;;;15.57;7.50;;;10.90;99.90;;;;;;5070493;28;20061;-81
2023/03/23 02:36:37;;;;;;;15.00;8.65;;;10.80;99.90;;;;;;5069893;28;20048;-82
2023/03/23 02:39:29;;;;;;;14.38;8.00;;;10.80;99.90;;;;;;5069544;28;20055;-82
2023/03/23 02:42:22;;;;;;;14.85;7.65;;;10.90;99.90;;;;;;5068084;28;20049;-84
2023/03/23 02:45:11;;;;;;;13.73;7.05;;;10.80;99.90;;;;;;5073146;28;20094;-83
2023/03/23 02:48:00;;;;;;;14.13;7.25;;;10.80;99.90;;;;;;5067721;28;20056;-81
2023/03/23 02:50:51;;;;;;;15.27;7.07;;;10.80;99.90;;;;;;5069692;28;20049;-82
2023/03/23 02:53:41;;;;;;;13.70;6.90;;;10.80;99.90;;;;;;5070027;28;20445;-83
2023/03/23 02:56:29;;;;;;;13.30;6.03;;;10.70;99.90;;;;;;5069655;28;20090;-81
2023/03/23 02:59:15;;;;;;;11.07;6.45;;;10.80;99.90;;;;;;5054434;28;20074;-84
2023/03/23 03:02:14;;;;;;;12.85;5.78;;;10.90;99.90;;;;;;5069838;28;20064;-85
2023/03/23 03:05:04;;;;;;;12.70;6.30;;;10.90;99.90;;;;;;5068838;28;20070;-81
2023/03/23 03:08:27;;;;;;;14.98;5.72;;;10.90;99.90;;;;;;5068895;28;20052;-82
2023/03/23 03:11:16;;;;;;;11.30;5.18;;;10.90;99.90;;;;;;5069517;28;20049;-83
2023/03/23 03:14:07;;;;;;;13.75;5.22;;;10.90;99.90;;;;;;5072784;28;20049;-83
2023/03/23 03:17:01;;;;;;;14.77;5.38;;;10.90;99.90;;;;;;5056463;28;20048;-81
2023/03/23 03:19:53;;;;;;;11.98;5.47;;;11.00;99.90;;;;;;5070696;28;20086;-85
2023/03/23 03:22:43;;;;;;;15.85;5.75;;;11.00;99.90;;;;;;5074187;28;20045;-84
2023/03/23 03:25:30;;;;;;;14.13;6.32;;;11.00;99.90;;;;;;5070328;28;20048;-82
2023/03/23 03:28:21;;;;;;;9.13;4.97;;;11.00;99.90;;;;;;5052381;28;20206;-82
2023/03/23 03:31:08;;;;;;;12.88;5.88;;;10.90;99.90;;;;;;5068173;28;20118;-85
2023/03/23 03:33:56;;;;;;;14.02;5.25;;;10.90;99.90;;;;;;5078818;28;20052;-82
2023/03/23 03:36:42;;;;;;;11.98;5.10;;;11.00;99.90;;;;;;5074249;28;20105;-82
2023/03/23 03:39:28;;;;;;;14.10;4.97;;;11.00;99.90;;;;;;5070753;28;20091;-82
2023/03/23 03:42:14;;;;;;;9.25;4.78;;;11.00;99.90;;;;;;5071795;28;20048;-84
2023/03/23 03:45:00;;;;;;;13.02;4.78;;;11.00;99.90;;;;;;5072092;28;20053;-82
2023/03/23 03:47:46;;;;;;;16.50;5.55;;;10.80;99.90;;;;;;5070094;28;20592;-81
2023/03/23 03:50:32;;;;;;;11.43;4.38;;;10.60;99.90;;;;;;5069120;28;20496;-81
2023/03/23 03:53:18;;;;;;;10.63;3.80;;;10.50;99.90;;;;;;5070131;28;20481;-81
2023/03/23 03:56:07;;;;;;;11.98;3.00;;;10.40;99.90;;;;;;5038138;28;20048;-87
2023/03/23 03:58:53;;;;;;;10.88;2.72;;;10.30;99.90;;;;;;5069017;28;20053;-81
2023/03/23 04:01:39;;;;;;;15.07;3.30;;;10.20;99.90;;;;;;5068370;28;20450;-87
2023/03/23 04:04:25;;;;;;;9.45;2.92;;;10.00;99.90;;;;;;5051938;28;20052;-81
2023/03/23 04:07:13;;;;;;;13.52;3.40;;;10.00;99.90;;;;;;5050318;28;20686;-85
2023/03/23 04:09:59;;;;;;;12.45;3.20;;;9.90;99.90;;;;;;5074472;28;20045;-86
2023/03/23 04:12:46;;;;;;;12.27;3.25;;;9.90;99.90;;;;;;5074027;28;20048;-83
2023/03/23 04:15:32;;;;;;;9.60;3.38;;;9.80;99.90;;;;;;5067769;28;20048;-85
2023/03/23 04:18:19;;;;;;;11.65;4.93;;;9.90;99.90;;;;;;5068415;28;20135;-81
2023/03/23 04:21:07;;;;;;;11.77;4.07;;;9.90;99.90;;;;;;5068370;28;20080;-80
2023/03/23 04:23:53;;;;;;;13.25;4.65;;;9.90;99.90;;;;;;5068190;28;20053;-81
2023/03/23 04:26:39;;;;;;;16.65;4.45;;;10.00;99.90;;;;;;5069100;28;20056;-83
2023/03/23 04:29:26;;;;;;;12.98;3.75;;;10.00;99.90;;;;;;5068863;28;20075;-80
2023/03/23 04:32:12;;;;;;;10.35;3.70;;;10.00;99.90;;;;;;5068322;28;20059;-81
2023/03/23 04:34:59;;;;;;;12.27;3.03;;;10.00;99.90;;;;;;5069140;28;20390;-82
2023/03/23 04:37:45;;;;;;;10.00;3.50;;;10.10;99.90;;;;;;5069694;28;20048;-82
2023/03/23 04:40:31;;;;;;;14.32;4.00;;;10.20;99.90;;;;;;5069018;28;20053;-84
2023/03/23 04:43:22;;;;;;;14.57;3.67;;;10.10;99.90;;;;;;5049387;28;20076;-85
2023/03/23 04:46:09;;;;;;;14.57;4.03;;;10.20;99.90;;;;;;5071954;28;20075;-85
2023/03/23 04:48:58;;;;;;;14.07;3.45;;;10.20;99.90;;;;;;5067553;28;20053;-82
2023/03/23 04:51:45;;;;;;;15.68;3.13;;;10.30;99.90;;;;;;5069214;28;20051;-81
2023/03/23 04:54:31;;;;;;;16.80;3.40;;;10.30;99.90;;;;;;5069973;28;20098;-86
2023/03/23 04:57:18;;;;;;;21.73;4.78;;;10.30;99.90;;;;;;5069436;28;20103;-82
2023/03/23 05:00:23;;;;;;;16.90;2.88;;;10.30;99.90;;;;;;5053826;28;20433;-82
2023/03/23 05:03:11;;;;;;;20.08;3.75;;;10.20;99.90;;;;;;5067319;28;20413;-82
2023/03/23 05:05:57;;;;;;;13.85;2.50;;;10.10;99.90;;;;;;5067567;28;20419;-84
2023/03/23 05:08:43;;;;;;;23.42;4.32;;;10.10;99.90;;;;;;5057260;28;20048;-83
2023/03/23 05:11:29;;;;;;;18.17;4.82;;;10.10;99.90;;;;;;5071385;28;20087;-84
2023/03/23 05:14:16;;;;;;;23.33;3.80;;;10.10;99.90;;;;;;5057766;28;20056;-83
2023/03/23 05:17:02;;;;;;;19.63;3.97;;;10.10;99.90;;;;;;5053990;28;20071;-85
2023/03/23 05:19:53;;;;;;;15.20;3.55;;;10.00;99.90;;;;;;5071433;28;20511;-81
2023/03/23 05:22:39;;;;;;;16.50;3.83;;;10.10;99.90;;;;;;5072372;28;20045;-82
2023/03/23 05:25:26;;;;;;;19.75;4.45;;;10.10;99.90;;;;;;5054212;28;20075;-82
2023/03/23 05:28:12;;;;;;;32.75;3.90;;;10.10;99.90;;;;;;5071428;28;20054;-81
2023/03/23 05:30:58;;;;;;;19.25;3.92;;;10.00;99.90;;;;;;5054672;28;20507;-85
2023/03/23 05:33:45;;;;;;;20.35;3.72;;;10.00;99.90;;;;;;5073277;28;20099;-82
2023/03/23 05:36:31;;;;;;;19.70;3.28;;;10.00;99.90;;;;;;5071441;28;20059;-82
2023/03/23 05:39:17;;;;;;;17.23;3.17;;;10.00;99.90;;;;;;5070605;28;20070;-80
2023/03/23 05:42:04;;;;;;;22.83;3.90;;;10.00;99.90;;;;;;5070804;28;20059;-83
2023/03/23 05:44:50;;;;;;;20.38;5.03;;;10.00;99.90;;;;;;5071544;28;20048;-82
2023/03/23 05:47:36;;;;;;;21.10;4.43;;;10.10;99.90;;;;;;5070157;28;20450;-82
2023/03/23 05:50:22;;;;;;;23.23;4.20;;;10.00;99.90;;;;;;5071544;28;20083;-83
2023/03/23 05:53:09;;;;;;;27.13;4.13;;;10.00;99.90;;;;;;5072379;28;20049;-85
2023/03/23 05:56:00;;;;;;;31.33;4.47;;;10.00;99.90;;;;;;5071548;28;20056;-83
2023/03/23 05:58:46;;;;;;;26.60;4.70;;;10.00;99.90;;;;;;5072652;28;20048;-84
2023/03/23 06:01:32;;;;;;;23.00;5.35;;;10.00;99.90;;;;;;5072614;28;20055;-85
2023/03/23 06:04:18;;;;;;;21.10;5.38;;;10.00;99.90;;;;;;5057302;28;20500;-81
2023/03/23 06:07:05;;;;;;;34.60;5.30;;;10.00;99.90;;;;;;5060705;28;20068;-85
2023/03/23 06:09:52;;;;;;;20.67;3.63;;;10.00;99.90;;;;;;5066964;28;20055;-85
2023/03/23 06:12:40;;;;;;;21.20;3.88;;;10.10;99.90;;;;;;5084761;28;20048;-85
2023/03/23 06:15:28;;;;;;;24.80;3.80;;;10.00;99.90;;;;;;5082511;28;20610;-83
2023/03/23 06:18:15;;;;;;;18.30;5.10;;;10.10;99.90;;;;;;5080036;28;20091;-85
2023/03/23 06:21:01;;;;;;;22.77;3.17;;;10.00;99.90;;;;;;5077621;28;20436;-82
2023/03/23 06:23:48;;;;;;;14.30;2.97;;;10.00;99.90;;;;;;5076548;28;20055;-86
2023/03/23 06:26:36;;;;;;;15.05;3.40;;;10.00;99.90;;;;;;5056968;28;20087;-85
2023/03/23 06:29:22;;;;;;;17.17;2.72;;;9.90;99.90;;;;;;5070132;28;20058;-84
2023/03/23 06:32:12;;;;;;;14.20;3.40;;;9.90;99.90;;;;;;5052052;28;20054;-81
2023/03/23 06:34:59;;;;;;;15.15;2.15;;;9.80;99.90;;;;;;5073304;28;20048;-86
2023/03/23 06:37:47;;;;;;;9.18;2.58;;;9.80;99.90;;;;;;5071838;28;20048;-85
2023/03/23 06:40:35;;;;;;;9.80;1.80;;;9.80;99.90;;;;;;5069319;28;20127;-82
2023/03/23 06:43:22;;;;;;;7.53;1.73;;;9.80;99.90;;;;;;5070488;28;20099;-84
2023/03/23 06:46:08;;;;;;;6.22;1.52;;;9.80;99.90;;;;;;5070003;28;20139;-82
2023/03/23 06:48:55;;;;;;;9.88;1.88;;;9.90;99.90;;;;;;5051596;28;20052;-84
2023/03/23 06:51:41;;;;;;;7.78;1.73;;;9.80;99.90;;;;;;5069686;28;20510;-82
2023/03/23 06:54:28;;;;;;;7.20;1.50;;;9.80;99.90;;;;;;5069176;28;20056;-81
2023/03/23 06:57:14;;;;;;;11.48;2.13;;;9.80;99.90;;;;;;5069353;28;20129;-82
2023/03/23 07:00:01;;;;;;;10.13;1.85;;;9.80;99.90;;;;;;5052811;28;20748;-83
2023/03/23 07:02:47;;;;;;;8.52;2.22;;;9.90;99.90;;;;;;5070032;28;20052;-82
2023/03/23 07:05:34;;;;;;;8.35;1.65;;;9.80;99.90;;;;;;5055755;28;20488;-83
2023/03/23 07:08:21;;;;;;;9.20;2.22;;;9.90;99.90;;;;;;5069952;28;20044;-85
2023/03/23 07:11:07;;;;;;;13.93;3.70;;;10.00;99.90;;;;;;5073744;28;20055;-83
2023/03/23 07:13:53;;;;;;;14.32;3.00;;;10.10;99.90;;;;;;5070100;28;20048;-83
2023/03/23 07:16:39;;;;;;;12.85;3.53;;;10.20;99.90;;;;;;5070313;28;20048;-83
2023/03/23 07:19:25;;;;;;;15.88;2.50;;;10.20;99.90;;;;;;5069260;28;20054;-84
2023/03/23 07:22:12;;;;;;;25.50;3.65;;;10.30;99.90;;;;;;5070241;28;20059;-85
2023/03/23 07:24:58;;;;;;;16.05;3.05;;;10.40;99.90;;;;;;5070983;28;20472;-83
2023/03/23 07:27:45;;;;;;;18.45;3.50;;;10.40;99.90;;;;;;5055166;28;20044;-85
2023/03/23 07:30:32;;;;;;;14.02;3.50;;;10.50;99.90;;;;;;5051006;28;20089;-85
2023/03/23 07:33:18;;;;;;;20.77;5.18;;;10.50;99.90;;;;;;5069351;28;20056;-86
2023/03/23 07:36:06;;;;;;;23.02;4.13;;;10.60;99.90;;;;;;5068787;28;20048;-85
2023/03/23 07:38:52;;;;;;;28.08;4.78;;;10.70;99.90;;;;;;5038246;28;20102;-85
2023/03/23 07:41:38;;;;;;;19.15;4.40;;;10.70;99.90;;;;;;5073594;28;20408;-86
2023/03/23 07:44:24;;;;;;;26.75;5.57;;;10.80;99.90;;;;;;5071611;28;20045;-83
2023/03/23 07:47:10;;;;;;;29.40;7.03;;;10.70;99.90;;;;;;5051291;28;20067;-84
2023/03/23 07:49:57;;;;;;;33.03;6.78;;;10.70;99.90;;;;;;5070320;28;20064;-83
2023/03/23 07:52:43;;;;;;;29.52;6.03;;;10.70;99.90;;;;;;5068500;28;20076;-83
2023/03/23 07:55:29;;;;;;;28.23;5.07;;;10.80;99.90;;;;;;5069330;28;20053;-86
2023/03/23 07:58:18;;;;;;;32.80;5.88;;;10.80;99.90;;;;;;5051064;28;20116;-84
2023/03/23 08:01:05;;;;;;;47.13;9.32;;;10.90;99.90;;;;;;5051151;28;20105;-84
2023/03/23 08:03:54;;;;;;;43.15;6.30;;;10.90;99.90;;;;;;5069228;28;20113;-83
2023/03/23 08:06:40;;;;;;;35.20;6.13;;;11.00;99.90;;;;;;5050463;28;20045;-83
2023/03/23 08:09:26;;;;;;;35.22;6.70;;;11.10;99.90;;;;;;5071005;28;20048;-85
2023/03/23 08:12:13;;;;;;;28.70;5.90;;;11.10;99.90;;;;;;5074986;28;20056;-82
2023/03/23 08:14:59;;;;;;;26.88;4.85;;;11.10;99.90;;;;;;5068496;28;20519;-83
2023/03/23 08:17:45;;;;;;;36.38;5.25;;;11.10;99.90;;;;;;5068796;28;20044;-83
2023/03/23 08:20:32;;;;;;;24.40;6.47;;;11.10;99.90;;;;;;5067812;28;20111;-85
2023/03/23 08:23:19;;;;;;;31.10;5.63;;;11.10;99.90;;;;;;5068920;28;20044;-83
2023/03/23 08:26:07;;;;;;;43.10;6.55;;;11.10;99.90;;;;;;5050655;28;20481;-83
2023/03/23 08:28:53;;;;;;;23.30;3.97;;;11.20;99.90;;;;;;5069047;28;20049;-84
2023/03/23 08:31:39;;;;;;;35.55;7.32;;;11.10;99.90;;;;;;5069272;28;20052;-83
2023/03/23 08:34:25;;;;;;;26.23;4.85;;;11.20;99.90;;;;;;5068820;28;20122;-81
2023/03/23 08:37:11;;;;;;;26.88;5.25;;;11.20;99.90;;;;;;5069899;28;20134;-81
2023/03/23 08:39:58;;;;;;;34.63;7.20;;;11.30;99.90;;;;;;5069977;28;20053;-84
2023/03/23 08:42:45;;;;;;;31.73;6.38;;;11.30;99.90;;;;;;5053940;28;20064;-83
2023/03/23 08:45:31;;;;;;;31.83;6.88;;;11.30;99.90;;;;;;5072141;28;20048;-81
2023/03/23 08:48:17;;;;;;;31.08;6.35;;;11.30;99.90;;;;;;5072984;28;20045;-80
2023/03/23 08:51:05;;;;;;;28.95;5.78;;;11.30;99.90;;;;;;5055251;28;20139;-81
2023/03/23 08:53:52;;;;;;;26.58;5.15;;;11.50;99.90;;;;;;5071929;28;20044;-82
2023/03/23 08:56:38;;;;;;;31.02;6.03;;;11.70;99.90;;;;;;5071140;28;20051;-81
2023/03/23 08:59:25;;;;;;;30.80;6.40;;;11.90;99.90;;;;;;5072779;28;20521;-81
2023/03/23 09:02:11;;;;;;;23.63;4.65;;;11.90;99.90;;;;;;5072183;28;20058;-82
2023/03/23 09:04:57;;;;;;;29.13;5.60;;;12.00;99.90;;;;;;5074348;28;20105;-83
2023/03/23 09:07:47;;;;;;;29.25;6.63;;;12.10;99.90;;;;;;5073490;28;20099;-84
2023/03/23 09:10:33;;;;;;;28.25;7.00;;;12.10;99.90;;;;;;5074896;28;20131;-83
2023/03/23 09:13:20;;;;;;;28.58;5.75;;;12.30;99.90;;;;;;5075163;28;20108;-84
2023/03/23 09:16:10;;;;;;;25.70;6.30;;;12.30;99.90;;;;;;5057838;28;20057;-85
2023/03/23 09:18:56;;;;;;;22.80;4.63;;;12.30;99.90;;;;;;5056036;28;20057;-86
2023/03/23 09:21:42;;;;;;;32.13;6.32;;;12.30;99.90;;;;;;5073351;28;20064;-85
2023/03/23 09:24:28;;;;;;;20.02;6.22;;;12.10;99.90;;;;;;5073968;28;20109;-86
2023/03/23 09:27:16;;;;;;;25.05;4.78;;;12.20;99.90;;;;;;5072216;28;20071;-84
2023/03/23 09:30:05;;;;;;;30.05;5.30;;;12.10;99.90;;;;;;5073086;28;20056;-85
2023/03/23 09:32:53;;;;;;;29.05;5.38;;;12.00;99.90;;;;;;5076245;28;20052;-83
2023/03/23 09:35:41;;;;;;;27.60;4.70;;;12.20;99.90;;;;;;5056232;28;20044;-83
2023/03/23 09:38:27;;;;;;;31.50;7.07;;;12.30;99.90;;;;;;5076982;28;20053;-83
2023/03/23 09:41:48;;;;;;;25.20;4.72;;;12.40;99.90;;;;;;5079695;28;20083;-85
2023/03/23 09:44:50;;;;;;;32.50;5.70;;;12.50;99.90;;;;;;5076565;28;20049;-85
2023/03/23 09:47:54;;;;;;;26.65;6.18;;;12.70;99.90;;;;;;5075786;28;20048;-84
2023/03/23 09:50:43;;;;;;;29.17;5.32;;;12.70;99.90;;;;;;5058329;28;20040;-82
2023/03/23 09:53:43;;;;;;;31.42;5.50;;;12.70;99.90;;;;;;5071802;28;20087;-84
2023/03/23 09:56:34;;;;;;;27.63;4.43;;;12.50;99.90;;;;;;5071462;28;20044;-83
2023/03/23 09:59:26;;;;;;;25.30;4.88;;;12.60;99.90;;;;;;5053273;28;20053;-85
2023/03/23 10:02:17;;;;;;;34.20;5.55;;;12.80;99.90;;;;;;5072447;28;20410;-84
2023/03/23 10:05:33;;;;;;;25.52;4.32;;;12.80;99.90;;;;;;5073868;28;20053;-85
2023/03/23 10:08:22;;;;;;;24.20;4.93;;;12.80;99.90;;;;;;5071427;28;20044;-84
2023/03/23 10:11:24;;;;;;;19.60;5.68;;;12.80;99.90;;;;;;5072177;28;20437;-84
2023/03/23 10:14:26;;;;;;;25.67;4.93;;;12.80;99.90;;;;;;5073871;28;20052;-84
2023/03/23 10:17:24;;;;;;;20.10;4.45;;;12.80;99.90;;;;;;5070279;28;20053;-84
2023/03/23 10:20:14;;;;;;;22.65;4.88;;;13.30;99.90;;;;;;5071765;28;20040;-86
2023/03/23 10:23:18;;;;;;;19.30;4.78;;;13.60;99.90;;;;;;5070698;28;20044;-87
2023/03/23 10:26:24;;;;;;;19.63;4.85;;;13.90;99.90;;;;;;5071081;28;20513;-85
2023/03/23 10:29:36;;;;;;;32.28;4.47;;;14.00;99.90;;;;;;5057429;28;20048;-85
2023/03/23 10:32:41;;;;;;;24.20;5.35;;;13.70;99.90;;;;;;5070455;28;20076;-84
2023/03/23 10:35:37;;;;;;;28.38;5.15;;;13.30;99.90;;;;;;5056157;28;20080;-84
2023/03/23 10:38:36;;;;;;;16.27;3.90;;;13.10;99.90;;;;;;5051606;28;20052;-82
2023/03/23 10:41:22;;;;;;;21.73;4.35;;;12.80;99.90;;;;;;5052740;28;20098;-85
2023/03/23 10:44:20;;;;;;;20.13;4.60;;;13.20;99.90;;;;;;5071994;28;20389;-83
2023/03/23 10:47:08;;;;;;;21.60;5.10;;;13.30;99.90;;;;;;5071479;28;20052;-82
2023/03/23 10:50:05;;;;;;;28.00;5.72;;;13.40;99.90;;;;;;5052291;28;20051;-83
2023/03/23 10:52:53;;;;;;;27.15;4.78;;;13.40;99.90;;;;;;5072111;28;20048;-81
2023/03/23 10:55:43;;;;;;;22.50;4.82;;;13.40;99.90;;;;;;5070917;28;20048;-82
2023/03/23 10:58:32;;;;;;;26.20;5.43;;;13.60;99.90;;;;;;5070167;28;20056;-83
2023/03/23 11:01:21;;;;;;;25.67;4.97;;;13.80;99.90;;;;;;5052713;28;20094;-82
2023/03/23 11:04:14;;;;;;;22.23;4.82;;;14.10;99.90;;;;;;5070357;28;20136;-82
2023/03/23 11:07:03;;;;;;;27.30;5.43;;;13.60;99.90;;;;;;5068508;28;20045;-83
2023/03/23 11:09:56;;;;;;;25.88;4.93;;;13.70;99.90;;;;;;5069051;28;20454;-85
2023/03/23 11:12:46;;;;;;;18.85;4.35;;;13.90;99.90;;;;;;5069660;28;20936;-82
2023/03/23 11:15:37;;;;;;;24.13;5.25;;;14.10;99.90;;;;;;5070024;28;20040;-83
2023/03/23 11:18:42;;;;;;;20.45;4.93;;;14.30;99.90;;;;;;5052045;28;20590;-83
2023/03/23 11:21:28;;;;;;;23.92;4.32;;;14.20;99.90;;;;;;5055278;28;20084;-82
2023/03/23 11:24:14;;;;;;;18.85;5.00;;;14.10;99.90;;;;;;5069852;28;20514;-83
2023/03/23 11:27:03;;;;;;;23.48;4.18;;;13.90;99.90;;;;;;5070000;28;20052;-84
2023/03/23 11:29:53;;;;;;;29.23;5.63;;;13.40;99.90;;;;;;5050918;28;20053;-84
2023/03/23 11:32:44;;;;;;;14.98;3.88;;;13.40;99.90;;;;;;5067894;28;20049;-81
2023/03/23 11:35:30;;;;;;;20.73;3.60;;;13.50;99.90;;;;;;5055057;28;20045;-82
2023/03/23 11:38:20;;;;;;;21.20;5.03;;;13.50;99.90;;;;;;5038048;28;20523;-82
2023/03/23 11:41:12;;;;;;;15.65;3.40;;;13.60;99.90;;;;;;5069567;28;20598;-86
2023/03/23 11:44:08;;;;;;;19.50;4.95;;;13.50;99.90;;;;;;5069640;28;20076;-83
2023/03/23 11:47:04;;;;;;;21.38;4.35;;;13.20;99.90;;;;;;5069500;28;20048;-83
2023/03/23 11:50:12;;;;;;;13.45;3.40;;;13.50;99.90;;;;;;5051728;28;20072;-84
2023/03/23 11:53:22;;;;;;;24.55;4.30;;;13.90;99.90;;;;;;5068937;28;20088;-83
2023/03/23 11:56:17;;;;;;;20.50;4.22;;;14.50;99.90;;;;;;5069752;28;20098;-83
2023/03/23 11:59:13;;;;;;;24.42;4.57;;;15.00;99.90;;;;;;5070549;28;20128;-84
2023/03/23 12:02:18;;;;;;;;;;;14.50;99.90;;;;;;5050703;28;20136;-82
2023/03/23 12:05:33;;;;;;;14.90;3.45;;;14.90;99.90;;;;;;5069512;28;20359;-84
2023/03/23 12:09:08;;;;;;;18.25;3.65;;;15.00;99.90;;;;;;5056185;28;20055;-83
2023/03/23 12:11:54;;;;;;;17.10;3.25;;;15.50;99.70;;;;;;5036506;28;20508;-81
2023/03/23 12:14:56;;;;;;;12.45;2.85;;;15.70;99.90;;;;;;5069037;28;20159;-84
2023/03/23 12:17:55;;;;;;;17.92;3.78;;;16.10;98.90;;;;;;5073513;28;20044;-84
2023/03/23 12:20:59;;;;;;;17.80;3.58;;;16.30;98.40;;;;;;5058626;28;20501;-85
2023/03/23 12:24:32;;;;;;;17.92;3.00;;;16.40;97.70;;;;;;5074503;28;20099;-85
2023/03/23 12:27:29;;;;;;;20.85;3.20;;;16.80;97.60;;;;;;5028026;28;20055;-86
2023/03/23 12:30:26;;;;;;;14.95;3.67;;;16.80;97.40;;;;;;5076514;28;20082;-84
2023/03/23 12:33:22;;;;;;;18.25;4.15;;;16.70;96.60;;;;;;5081266;28;20131;-85
2023/03/23 12:36:49;;;;;;;12.82;3.53;;;16.30;97.00;;;;;;5073665;28;20049;-83
2023/03/23 12:39:45;;;;;;;18.45;3.35;;;16.10;97.70;;;;;;5072087;28;20055;-82
2023/03/23 12:42:39;;;;;;;;;;;16.00;98.90;;;;;;5072542;28;20053;-85
2023/03/23 12:45:50;;;;;;;19.20;3.95;;;16.40;98.70;;;;;;5074368;28;20477;-82
2023/03/23 12:49:05;;;;;;;18.20;4.68;;;16.90;98.60;;;;;;5073743;28;20059;-85
2023/03/23 12:51:57;;;;;;;13.68;3.20;;;16.90;97.60;;;;;;5072294;28;20059;-83
2023/03/23 12:55:05;;;;;;;18.92;4.10;;;17.20;96.50;;;;;;5054625;28;20143;-83
2023/03/23 12:58:00;;;;;;;15.80;3.78;;;16.10;97.60;;;;;;5071964;28;20400;-84
2023/03/23 13:00:49;;;;;;;15.27;3.40;;;15.40;99.10;;;;;;5044616;28;20049;-85
2023/03/23 13:03:53;;;;;;;18.35;3.38;;;15.40;99.60;;;;;;5074442;28;20060;-84
2023/03/23 13:06:46;;;;;;;15.27;3.55;;;15.70;99.90;;;;;;5076141;28;20049;-86
2023/03/23 13:09:48;;;;;;;18.25;3.95;;;16.10;99.20;;;;;;5036613;28;20139;-86
2023/03/23 13:12:39;;;;;;;18.95;4.13;;;15.40;99.30;;;;;;5071501;28;20049;-87
2023/03/23 13:15:49;;;;;;;23.10;4.20;;;15.80;99.90;;;;;;5071202;28;20496;-86
2023/03/23 13:19:11;;;;;;;20.85;3.78;;;16.30;99.40;;;;;;5071870;28;20090;-86
2023/03/23 13:22:13;;;;;;;17.45;3.45;;;15.00;99.90;;;;;;5057856;28;20497;-82
2023/03/23 13:25:03;;;;;;;21.23;5.40;;;15.40;99.90;;;;;;5073142;28;20048;-84
2023/03/23 13:28:02;;;;;;;16.67;3.28;;;16.00;99.70;;;;;;5073457;28;20066;-85
2023/03/23 13:31:14;;;;;;;17.30;4.80;;;16.40;98.40;;;;;;5071301;28;20056;-83
2023/03/23 13:34:22;;;;;;;23.30;4.80;;;16.10;98.90;;;;;;5072749;28;20056;-85
2023/03/23 13:37:24;;;;;;;16.55;3.38;;;15.00;99.90;;;;;;5075456;28;20053;-85
2023/03/23 13:40:28;;;;;;;22.67;3.60;;;14.50;99.90;;;;;;5056116;28;20049;-86
2023/03/23 13:43:29;;;;;;;19.63;3.58;;;14.10;99.90;;;;;;5071117;28;20041;-85
2023/03/23 13:46:18;;;;;;;18.90;3.58;;;13.80;99.90;;;;;;5071071;28;20048;-84
2023/03/23 13:49:17;;;;;;;20.45;4.57;;;13.80;99.90;;;;;;5071036;28;20049;-88
2023/03/23 13:52:17;;;;;;;17.05;3.83;;;14.80;99.90;;;;;;5071784;28;20044;-88
2023/03/23 13:55:15;;;;;;;22.00;5.32;;;14.80;99.90;;;;;;5073284;28;20044;-83
2023/03/23 13:58:01;;;;;;;11.95;4.20;;;15.30;99.90;;;;;;5052751;28;20079;-86
2023/03/23 14:01:01;;;;;;;23.40;4.10;;;15.30;99.90;;;;;;5052241;28;20861;-84
2023/03/23 14:03:52;;;;;;;19.50;4.47;;;15.40;99.90;;;;;;5069647;28;20063;-82
2023/03/23 14:06:38;;;;;;;20.67;3.55;;;15.20;99.90;;;;;;5071607;28;20048;-84
2023/03/23 14:09:24;;;;;;;21.92;3.63;;;14.90;99.90;;;;;;5053255;28;20043;-84
2023/03/23 14:12:28;;;;;;;16.10;3.83;;;14.80;99.90;;;;;;5040533;28;20048;-84
2023/03/23 14:15:15;;;;;;;23.00;3.70;;;14.40;99.90;;;;;;5070624;28;20055;-84
2023/03/23 14:18:03;;;;;;;23.17;3.75;;;14.10;99.90;;;;;;5040088;28;20102;-86
2023/03/23 14:20:50;;;;;;;13.45;3.22;;;14.10;99.90;;;;;;5075532;28;20084;-85
2023/03/23 14:23:36;;;;;;;16.80;3.40;;;14.40;99.90;;;;;;5069985;28;20059;-87
2023/03/23 14:26:22;;;;;;;25.52;4.35;;;14.50;99.90;;;;;;5069881;28;20655;-87
2023/03/23 14:29:11;;;;;;;16.95;3.33;;;15.20;99.90;;;;;;5072489;28;20444;-83
2023/03/23 14:31:58;;;;;;;16.17;2.42;;;15.90;99.90;;;;;;5061068;28;20052;-84
2023/03/23 14:34:47;;;;;;;15.57;3.30;;;16.70;99.90;;;;;;5072801;28;20048;-86
2023/03/23 14:37:35;;;;;;;23.40;4.55;;;17.20;99.60;;;;;;5070640;28;20048;-81
2023/03/23 14:40:21;;;;;;;16.42;3.20;;;17.40;98.90;;;;;;5070012;28;20056;-83